Time;durP1;ratioP1;P1;durP2;ratioP2;P2;SDS_P1;SDS_P2;PMS_P1;PMS_P2;Temp;Humidity;BMP_temperature;BMP_pressure;BME280_temperature;BME280_humidity;BME280_pressure;Samples;Min_cycle;Max_cycle;Signal;HPM_P1;HPM_P2
2022/06/14 00:00:53;;;;;;;;;;;;;;;24.97;66.70;99757.94;2031861;28;20016;-55
2022/06/14 00:01:00;;;;;;;;;;;;;;;24.97;66.55;99754.38;2022429;28;19922;-55
2022/06/14 00:02:00;;;;;;;;;;;;;;;24.96;66.58;99755.59;2036353;28;19957;-55
2022/06/14 00:03:01;;;;;;;;;;;;;;;24.96;66.70;99758.38;2034440;28;19906;-55
2022/06/14 00:04:01;;;;;;;;;;;;;;;24.96;66.78;99756.38;2034813;28;19902;-55
2022/06/14 00:05:02;;;;;;;;;;;;;;;24.95;67.00;99752.09;2033616;28;19918;-55
2022/06/14 00:06:12;;;;;;;;;;;;;;;24.96;66.89;99755.59;2034143;28;19944;-54
2022/06/14 00:07:13;;;;;;;;;;;;;;;24.96;67.04;99761.16;2028441;29;19919;-55
2022/06/14 00:08:13;;;;;;;;;;;;;;;24.96;66.87;99750.06;2027500;29;20352;-55
2022/06/14 00:09:14;;;;;;;;;;;;;;;24.95;67.12;99749.31;2029424;28;19939;-55
2022/06/14 00:10:14;;;;;;;;;;;;;;;24.95;66.93;99754.88;2031880;29;19915;-54
2022/06/14 00:11:16;;;;;;;;;;;;;;;24.95;67.22;99754.09;2032208;28;20375;-55
2022/06/14 00:12:16;;;;;;;;;;;;;;;24.95;67.18;99743.78;2033279;28;19914;-55
2022/06/14 00:13:17;;;;;;;;;;;;;;;24.94;66.87;99753.31;2031046;28;19915;-55
2022/06/14 00:14:19;;;;;;;;;;;;;;;24.94;66.84;99753.31;2033073;28;19914;-55
2022/06/14 00:15:19;;;;;;;;;;;;;;;24.94;67.00;99756.09;2027433;28;19915;-54
2022/06/14 00:16:20;;;;;;;;;;;;;;;24.93;67.09;99749.00;2032931;28;19922;-53
2022/06/14 00:17:20;;;;;;;;;;;;;;;24.94;66.74;99750.56;2035051;28;21428;-55
2022/06/14 00:18:21;;;;;;;;;;;;;;;24.93;67.13;99743.47;2033015;28;20276;-55
2022/06/14 00:19:21;;;;;;;;;;;;;;;24.94;67.04;99747.00;2036368;28;20203;-55
2022/06/14 00:20:21;;;;;;;;;;;;;;;24.93;66.87;99745.47;2031491;29;19915;-55
2022/06/14 00:21:22;;;;;;;;;;;;;;;24.93;67.08;99746.22;2034239;28;19914;-54
2022/06/14 00:22:22;;;;;;;;;;;;;;;24.92;66.92;99753.00;2033306;28;19914;-55
2022/06/14 00:23:22;;;;;;;;;;;;;;;24.91;66.77;99748.69;2032838;28;20844;-55
2022/06/14 00:24:23;;;;;;;;;;;;;;;24.92;66.90;99752.22;2032002;28;20456;-55
2022/06/14 00:25:28;;;;;;;;;;;;;;;24.90;66.81;99747.16;2029655;29;19921;-54
2022/06/14 00:26:29;;;;;;;;;;;;;;;24.93;66.85;99751.00;2029228;29;20374;-54
2022/06/14 00:27:29;;;;;;;;;;;;;;;24.91;66.95;99747.91;2029486;29;19918;-54
2022/06/14 00:28:30;;;;;;;;;;;;;;;24.90;66.68;99743.63;2035073;28;19913;-54
2022/06/14 00:29:30;;;;;;;;;;;;;;;24.89;66.83;99745.63;2033404;28;19922;-54
2022/06/14 00:30:31;;;;;;;;;;;;;;;24.90;66.95;99747.16;2032674;29;19907;-55
2022/06/14 00:31:31;;;;;;;;;;;;;;;24.89;66.57;99740.09;2032028;29;19922;-54
2022/06/14 00:32:32;;;;;;;;;;;;;;;24.88;66.73;99749.63;2031420;28;19977;-55
2022/06/14 00:33:32;;;;;;;;;;;;;;;24.88;66.68;99744.09;2022696;29;19919;-55
2022/06/14 00:34:33;;;;;;;;;;;;;;;24.88;66.69;99746.06;2029277;29;19915;-55
2022/06/14 00:35:33;;;;;;;;;;;;;;;24.88;66.27;99737.75;2034584;28;20353;-55
2022/06/14 00:36:34;;;;;;;;;;;;;;;24.87;66.27;99748.03;2028859;29;20149;-54
2022/06/14 00:37:34;;;;;;;;;;;;;;;24.89;66.67;99742.09;2032760;28;20326;-54
2022/06/14 00:38:36;;;;;;;;;;;;;;;24.86;66.29;99740.97;2035571;28;19949;-55
2022/06/14 00:39:36;;;;;;;;;;;;;;;24.87;66.64;99738.97;2032053;29;19921;-54
2022/06/14 00:40:37;;;;;;;;;;;;;;;24.86;66.56;99738.19;2035733;28;19930;-55
2022/06/14 00:41:42;;;;;;;;;;;;;;;24.87;66.78;99736.19;2032718;28;19930;-55
2022/06/14 00:42:42;;;;;;;;;;;;;;;24.87;66.50;99730.66;2032395;28;20829;-55
2022/06/14 00:43:42;;;;;;;;;;;;;;;24.86;66.59;99731.88;2027309;29;20372;-54
2022/06/14 00:45:00;;;;;;;;;;;;;;;24.85;66.63;99733.91;2029540;29;20491;-54
2022/06/14 00:46:00;;;;;;;;;;;;;;;24.86;66.70;99729.09;2022774;29;19915;-55
2022/06/14 00:47:13;;;;;;;;;;;;;;;24.85;66.90;99722.06;2027804;28;19907;-54
2022/06/14 00:48:25;;;;;;;;;;;;;;;24.85;66.59;99733.91;2021733;29;20385;-55
2022/06/14 00:49:31;;;;;;;;;;;;;;;24.85;66.91;99731.13;2029870;28;20638;-55
2022/06/14 00:50:34;;;;;;;;;;;;;;;24.83;66.58;99725.28;2034172;28;20329;-54
2022/06/14 00:51:37;;;;;;;;;;;;;;;24.84;66.67;99729.59;2037513;28;19950;-55
2022/06/14 00:52:39;;;;;;;;;;;;;;;24.83;66.91;99728.81;2027745;29;19914;-55
2022/06/14 00:53:40;;;;;;;;;;;;;;;24.83;66.78;99716.97;2022141;29;19925;-56
2022/06/14 00:54:41;;;;;;;;;;;;;;;24.82;66.48;99729.28;2037993;28;19907;-54
2022/06/14 00:56:05;;;;;;;;;;;;;;;24.82;66.43;99720.97;2034368;29;19914;-54
2022/06/14 00:57:08;;;;;;;;;;;;;;;24.81;66.69;99720.19;2022423;29;19907;-55
2022/06/14 00:58:11;;;;;;;;;;;;;;;24.81;66.76;99724.94;2032600;28;20358;-53
2022/06/14 00:59:15;;;;;;;;;;;;;;;24.80;66.81;99718.63;2030677;29;19989;-55
2022/06/14 01:00:20;;;;;;;;;;;;;;;24.81;66.85;99716.66;2032969;28;19915;-54
2022/06/14 01:01:22;;;;;;;;;;;;;;;24.79;66.69;99714.34;2038293;28;19906;-55
2022/06/14 01:02:37;;;;;;;;;;;;;;;24.81;66.66;99716.66;2030483;28;19914;-54
2022/06/14 01:03:39;;;;;;;;;;;;;;;24.81;66.53;99713.88;2028474;29;19985;-54
2022/06/14 01:04:40;;;;;;;;;;;;;;;24.80;66.52;99717.88;2030457;29;20211;-55
2022/06/14 01:07:09;;;;;;;;;;;;;;;24.80;66.78;99717.88;2035327;28;19914;-55
2022/06/14 01:08:09;;;;;;;;;;;;;;;24.80;66.45;99717.88;2035398;28;19961;-54
2022/06/14 01:09:12;;;;;;;;;;;;;;;24.80;66.52;99715.09;2039172;28;19922;-55
2022/06/14 01:10:16;;;;;;;;;;;;;;;24.80;66.92;99712.34;2026410;29;20341;-55
2022/06/14 01:11:22;;;;;;;;;;;;;;;24.79;66.71;99717.13;2029143;29;19925;-55
2022/06/14 01:12:26;;;;;;;;;;;;;;;24.78;66.66;99710.03;2038167;28;20233;-55
2022/06/14 01:13:27;;;;;;;;;;;;;;;24.78;66.53;99717.59;2034839;28;20248;-54
2022/06/14 01:14:44;;;;;;;;;;;;;;;24.78;66.70;99712.03;2036530;28;19914;-55
2022/06/14 01:15:44;;;;;;;;;;;;;;;24.77;66.78;99716.81;2030191;29;20381;-55
2022/06/14 01:16:45;;;;;;;;;;;;;;;24.77;66.48;99716.03;2030442;28;19921;-54
2022/06/14 01:18:12;;;;;;;;;;;;;;;24.77;66.79;99716.03;2038152;28;20707;-54
2022/06/14 01:19:22;;;;;;;;;;;;;;;24.76;66.73;99718.03;2024899;28;20112;-55
2022/06/14 01:20:22;;;;;;;;;;;;;;;24.76;66.72;99718.03;2030778;28;20017;-54
2022/06/14 01:21:23;;;;;;;;;;;;;;;24.76;66.45;99717.25;2031749;28;19911;-54
2022/06/14 01:22:24;;;;;;;;;;;;;;;24.75;66.67;99710.94;2030657;28;20446;-55
2022/06/14 01:23:25;;;;;;;;;;;;;;;24.75;66.68;99716.50;2031688;28;19914;-54
2022/06/14 01:24:26;;;;;;;;;;;;;;;24.75;66.52;99718.47;2029728;29;19915;-55
2022/06/14 01:25:28;;;;;;;;;;;;;;;24.75;66.71;99721.25;2036233;28;19914;-55
2022/06/14 01:26:29;;;;;;;;;;;;;;;24.74;66.52;99714.19;2034181;28;19933;-54
2022/06/14 01:27:31;;;;;;;;;;;;;;;24.75;66.82;99724.03;2036196;28;19962;-54
2022/06/14 01:28:32;;;;;;;;;;;;;;;24.74;66.53;99722.50;2032917;28;20222;-55
2022/06/14 01:29:33;;;;;;;;;;;;;;;24.74;66.72;99716.97;2029223;29;19915;-55
2022/06/14 01:30:35;;;;;;;;;;;;;;;24.74;66.89;99716.97;2030103;28;19982;-55
2022/06/14 01:31:35;;;;;;;;;;;;;;;24.73;66.64;99720.97;2031013;28;20276;-55
2022/06/14 01:32:39;;;;;;;;;;;;;;;24.74;66.50;99717.75;2038427;28;19920;-54
2022/06/14 01:33:41;;;;;;;;;;;;;;;24.73;66.53;99716.19;2036251;28;20054;-53
2022/06/14 01:34:49;;;;;;;;;;;;;;;24.74;66.63;99716.97;2035771;28;19915;-55
2022/06/14 01:35:52;;;;;;;;;;;;;;;24.73;66.63;99715.44;2029986;29;19914;-55
2022/06/14 01:36:53;;;;;;;;;;;;;;;24.73;66.78;99710.66;2021142;29;20018;-55
2022/06/14 01:37:54;;;;;;;;;;;;;;;24.72;66.80;99720.19;2022960;29;19946;-55
2022/06/14 01:38:57;;;;;;;;;;;;;;;24.72;66.93;99720.19;2020596;29;19911;-55
2022/06/14 01:39:58;;;;;;;;;;;;;;;24.73;66.93;99718.19;2032534;28;19910;-54
2022/06/14 01:41:01;;;;;;;;;;;;;;;24.72;66.87;99711.09;2037176;28;20146;-55
2022/06/14 01:42:08;;;;;;;;;;;;;;;24.72;66.85;99713.88;2027152;29;19929;-55
2022/06/14 01:43:23;;;;;;;;;;;;;;;24.71;66.82;99718.66;2023629;29;19915;-55
2022/06/14 01:44:26;;;;;;;;;;;;;;;24.72;66.77;99713.88;2026446;28;19915;-55
2022/06/14 01:45:39;;;;;;;;;;;;;;;24.71;66.89;99718.66;2029703;29;19915;-54
2022/06/14 01:46:53;;;;;;;;;;;;;;;24.70;66.89;99714.34;2035266;28;20205;-55
2022/06/14 01:47:53;;;;;;;;;;;;;;;24.70;66.95;99714.34;2024775;29;19919;-55
2022/06/14 01:51:50;;;;;;;;;;;;;;;24.71;66.79;99712.34;2029987;29;20524;-55
2022/06/14 01:51:51;;;;;;;;;;;;;;;24.70;66.65;99716.31;2035850;28;20317;-54
2022/06/14 01:53:00;;;;;;;;;;;;;;;24.69;66.94;99712.03;2037922;28;19910;-54
2022/06/14 01:54:06;;;;;;;;;;;;;;;24.69;66.88;99720.34;2032104;28;19961;-55
2022/06/14 01:55:07;;;;;;;;;;;;;;;24.69;66.76;99723.13;2034375;28;20446;-55
2022/06/14 01:56:17;;;;;;;;;;;;;;;24.69;66.92;99723.13;2029294;28;19965;-55
2022/06/14 01:57:24;;;;;;;;;;;;;;;24.68;66.68;99719.56;2029936;29;19946;-55
2022/06/14 01:58:30;;;;;;;;;;;;;;;24.68;66.93;99724.34;2033272;28;19937;-54
2022/06/14 01:59:42;;;;;;;;;;;;;;;24.68;66.73;99721.56;2031359;28;19922;-55
2022/06/14 02:00:55;;;;;;;;;;;;;;;24.68;66.56;99719.56;2039018;28;19961;-55
2022/06/14 02:02:02;;;;;;;;;;;;;;;24.67;66.87;99709.72;2029706;29;19914;-54
2022/06/14 02:04:39;;;;;;;;;;;;;;;24.67;66.93;99711.72;2030261;28;19914;-55
2022/06/14 02:05:45;;;;;;;;;;;;;;;24.66;66.79;99705.41;2036307;28;19910;-55
2022/06/14 02:06:48;;;;;;;;;;;;;;;24.66;66.77;99704.63;2033229;29;19969;-54
2022/06/14 02:07:54;;;;;;;;;;;;;;;24.65;66.66;99709.41;2035540;28;20010;-55
2022/06/14 02:09:13;;;;;;;;;;;;;;;24.65;66.77;99709.41;2028919;29;20247;-54
2022/06/14 02:10:25;;;;;;;;;;;;;;;24.65;67.04;99708.63;2029557;29;19921;-55
2022/06/14 02:11:32;;;;;;;;;;;;;;;24.64;66.77;99707.84;2031496;29;19938;-54
2022/06/14 02:12:42;;;;;;;;;;;;;;;24.64;66.86;99709.88;2028884;29;19930;-54
2022/06/14 02:13:52;;;;;;;;;;;;;;;24.62;66.79;99721.41;2029494;29;20009;-55
2022/06/14 02:14:58;;;;;;;;;;;;;;;24.62;66.71;99715.88;2032436;28;20254;-55
2022/06/14 02:16:06;;;;;;;;;;;;;;;24.62;66.86;99710.34;2031048;28;20329;-55
2022/06/14 02:17:12;;;;;;;;;;;;;;;24.62;66.71;99706.78;2036394;28;20384;-54
2022/06/14 02:18:18;;;;;;;;;;;;;;;24.61;66.99;99713.56;2029369;29;19914;-55
2022/06/14 02:19:40;;;;;;;;;;;;;;;24.61;66.93;99713.56;2029796;28;19902;-55
2022/06/14 02:20:43;;;;;;;;;;;;;;;24.61;66.88;99708.78;2028484;28;20512;-55
2022/06/14 02:21:54;;;;;;;;;;;;;;;24.61;66.74;99708.03;2035763;28;19937;-55
2022/06/14 02:22:59;;;;;;;;;;;;;;;24.59;67.04;99705.69;2036099;28;19961;-55
2022/06/14 02:24:18;;;;;;;;;;;;;;;24.62;66.80;99709.56;2033270;28;19910;-54
2022/06/14 02:25:24;;;;;;;;;;;;;;;24.60;67.03;99704.47;2033955;28;19919;-54
2022/06/14 02:26:36;;;;;;;;;;;;;;;24.60;66.94;99703.69;2031333;28;19958;-55
2022/06/14 02:27:48;;;;;;;;;;;;;;;24.60;66.66;99706.47;2033271;28;19914;-54
2022/06/14 02:28:54;;;;;;;;;;;;;;;24.59;66.74;99705.69;2031287;28;19909;-54
2022/06/14 02:30:00;;;;;;;;;;;;;;;24.60;66.69;99712.00;2031942;28;19911;-55
2022/06/14 02:31:02;;;;;;;;;;;;;;;24.60;66.83;99706.47;2029896;28;19966;-55
2022/06/14 02:32:15;;;;;;;;;;;;;;;24.59;66.95;99716.78;2030275;28;19929;-55
2022/06/14 02:33:20;;;;;;;;;;;;;;;24.60;66.78;99712.00;2034066;28;20601;-54
2022/06/14 02:34:25;;;;;;;;;;;;;;;24.58;66.76;99703.41;2035009;28;20015;-54
2022/06/14 02:35:28;;;;;;;;;;;;;;;24.58;67.00;99700.66;2036814;28;19914;-54
2022/06/14 02:36:33;;;;;;;;;;;;;;;24.57;66.81;99697.09;2033385;28;20134;-55
2022/06/14 02:37:41;;;;;;;;;;;;;;;24.58;66.75;99706.19;2033870;28;19914;-55
2022/06/14 02:38:56;;;;;;;;;;;;;;;24.57;66.95;99699.09;2034439;28;19913;-53
2022/06/14 02:40:01;;;;;;;;;;;;;;;24.56;66.87;99703.88;2029870;29;20314;-55
2022/06/14 02:41:10;;;;;;;;;;;;;;;24.57;67.10;99710.19;2030890;29;19922;-55
2022/06/14 02:42:27;;;;;;;;;;;;;;;24.56;66.73;99709.41;2028806;28;19981;-54
2022/06/14 02:43:31;;;;;;;;;;;;;;;24.56;66.90;99716.94;2036459;28;19917;-55
2022/06/14 02:44:44;;;;;;;;;;;;;;;24.55;66.91;99709.84;2034223;28;19919;-55
2022/06/14 02:45:49;;;;;;;;;;;;;;;24.55;66.89;99704.31;2032710;29;19921;-55
2022/06/14 02:46:55;;;;;;;;;;;;;;;24.55;67.07;99707.09;2029373;29;19914;-54
2022/06/14 02:48:02;;;;;;;;;;;;;;;24.54;66.73;99708.31;2029370;28;20225;-55
2022/06/14 02:49:07;;;;;;;;;;;;;;;24.54;66.96;99702.78;2023363;29;19937;-55
2022/06/14 02:50:21;;;;;;;;;;;;;;;24.54;67.06;99706.31;2019602;29;20251;-55
2022/06/14 02:51:25;;;;;;;;;;;;;;;24.54;67.00;99709.09;2030389;28;20184;-54
2022/06/14 02:52:39;;;;;;;;;;;;;;;24.53;66.78;99704.03;2036610;28;19923;-54
2022/06/14 02:53:44;;;;;;;;;;;;;;;24.53;67.04;99704.03;2029224;29;19958;-54
2022/06/14 02:54:55;;;;;;;;;;;;;;;24.53;66.77;99699.25;2032616;28;19921;-53
2022/06/14 02:55:55;;;;;;;;;;;;;;;24.52;66.77;99703.25;2033257;28;20467;-55
2022/06/14 02:57:00;;;;;;;;;;;;;;;24.52;67.03;99697.72;2036390;28;20107;-55
2022/06/14 02:58:07;;;;;;;;;;;;;;;24.51;67.09;99698.94;2033329;28;19914;-55
2022/06/14 02:59:10;;;;;;;;;;;;;;;24.51;67.21;99700.94;2035981;28;19954;-55
2022/06/14 03:00:14;;;;;;;;;;;;;;;24.50;66.96;99697.41;2031619;28;20470;-54
2022/06/14 03:01:27;;;;;;;;;;;;;;;24.50;66.88;99696.63;2033908;28;19921;-54
2022/06/14 03:02:36;;;;;;;;;;;;;;;24.48;66.91;99699.84;2029568;29;20830;-52
2022/06/14 03:03:39;;;;;;;;;;;;;;;24.48;66.74;99694.31;2034336;28;19965;-54
2022/06/14 03:04:44;;;;;;;;;;;;;;;24.48;66.73;99701.88;2032384;28;19914;-55
2022/06/14 03:05:57;;;;;;;;;;;;;;;24.48;66.64;99693.56;2029196;29;19914;-55
2022/06/14 03:06:58;;;;;;;;;;;;;;;24.48;66.86;99696.31;2033855;28;20033;-54
2022/06/14 03:08:09;;;;;;;;;;;;;;;24.48;66.92;99696.31;2035082;28;20005;-55
2022/06/14 03:09:14;;;;;;;;;;;;;;;24.47;66.93;99690.03;2036838;28;19961;-54
2022/06/14 03:10:15;;;;;;;;;;;;;;;24.47;67.13;99686.47;2034104;28;19965;-55
2022/06/14 03:11:27;;;;;;;;;;;;;;;24.47;67.00;99692.00;2035148;28;19930;-54
2022/06/14 03:12:39;;;;;;;;;;;;;;;24.47;66.92;99697.56;2036918;28;19914;-54
2022/06/14 03:13:49;;;;;;;;;;;;;;;24.47;67.07;99700.31;2035531;28;19921;-53
2022/06/14 03:14:52;;;;;;;;;;;;;;;24.46;66.99;99699.53;2026125;29;20181;-55
2022/06/14 03:15:55;;;;;;;;;;;;;;;24.47;67.00;99697.56;2027517;29;19922;-55
2022/06/14 03:17:15;;;;;;;;;;;;;;;24.46;67.02;99696.78;2029004;28;19915;-54
2022/06/14 03:18:31;;;;;;;;;;;;;;;24.47;66.71;99689.25;2032544;28;19920;-55
2022/06/14 03:19:43;;;;;;;;;;;;;;;24.46;66.70;99707.06;2030263;28;19917;-55
2022/06/14 03:21:02;;;;;;;;;;;;;;;24.46;66.89;99701.53;2029076;29;19922;-55
2022/06/14 03:22:11;;;;;;;;;;;;;;;24.46;66.81;99693.25;2037524;28;19926;-55
2022/06/14 03:23:21;;;;;;;;;;;;;;;24.44;67.14;99692.91;2034561;28;19914;-54
2022/06/14 03:24:29;;;;;;;;;;;;;;;24.45;67.01;99702.75;2033977;28;20586;-54
2022/06/14 03:25:54;;;;;;;;;;;;;;;24.44;66.91;99699.22;2035744;28;19961;-55
2022/06/14 03:26:58;;;;;;;;;;;;;;;24.45;66.86;99705.53;2029014;29;20394;-54
2022/06/14 03:28:05;;;;;;;;;;;;;;;24.44;67.03;99699.22;2027900;29;20358;-55
2022/06/14 03:29:08;;;;;;;;;;;;;;;24.45;67.02;99705.53;2034382;28;20253;-55
2022/06/14 03:30:27;;;;;;;;;;;;;;;24.45;66.86;99700.00;2034910;28;19926;-54
2022/06/14 03:31:36;;;;;;;;;;;;;;;24.44;66.88;99704.75;2030070;28;20495;-55
2022/06/14 03:32:39;;;;;;;;;;;;;;;24.43;66.87;99700.44;2028527;29;19978;-55
2022/06/14 03:33:48;;;;;;;;;;;;;;;24.43;67.11;99705.25;2032312;29;19914;-54
2022/06/14 03:34:51;;;;;;;;;;;;;;;24.42;66.97;99695.38;2034584;28;19981;-55
2022/06/14 03:35:52;;;;;;;;;;;;;;;24.42;66.87;99701.69;2032467;28;20237;-54
2022/06/14 03:36:53;;;;;;;;;;;;;;;24.41;66.81;99702.91;2033581;28;19914;-54
2022/06/14 03:37:56;;;;;;;;;;;;;;;24.42;66.81;99706.47;2034033;28;19913;-55
2022/06/14 03:39:03;;;;;;;;;;;;;;;24.41;66.91;99705.69;2028176;28;19914;-55
2022/06/14 03:40:06;;;;;;;;;;;;;;;24.40;66.78;99710.44;2020775;29;19919;-55
2022/06/14 03:41:08;;;;;;;;;;;;;;;24.40;66.80;99710.44;2026876;28;19984;-55
2022/06/14 03:42:09;;;;;;;;;;;;;;;24.39;66.91;99705.38;2032953;28;19922;-55
2022/06/14 03:43:10;;;;;;;;;;;;;;;24.39;66.97;99700.59;2029619;29;20356;-55
2022/06/14 03:44:11;;;;;;;;;;;;;;;24.39;67.06;99705.38;2032426;28;20013;-55
2022/06/14 03:45:15;;;;;;;;;;;;;;;24.38;67.03;99701.06;2034635;28;19920;-55
2022/06/14 03:46:22;;;;;;;;;;;;;;;24.37;66.98;99697.50;2029332;29;20593;-54
2022/06/14 03:47:24;;;;;;;;;;;;;;;24.37;67.02;99705.81;2031794;28;19961;-55
2022/06/14 03:48:26;;;;;;;;;;;;;;;24.37;67.04;99705.81;2037815;28;19915;-54
2022/06/14 03:49:26;;;;;;;;;;;;;;;24.38;66.81;99712.13;2027102;29;20392;-55
2022/06/14 03:50:35;;;;;;;;;;;;;;;24.37;66.95;99705.81;2025634;29;20311;-55
2022/06/14 03:51:41;;;;;;;;;;;;;;;24.36;66.88;99704.31;2036325;28;19918;-54
2022/06/14 03:52:53;;;;;;;;;;;;;;;24.36;66.97;99709.84;2028568;28;19921;-55
2022/06/14 03:54:07;;;;;;;;;;;;;;;24.36;67.11;99704.31;2031417;28;19928;-54
2022/06/14 03:55:26;;;;;;;;;;;;;;;24.36;67.14;99706.28;2033581;28;19921;-55
2022/06/14 03:56:29;;;;;;;;;;;;;;;24.35;66.93;99713.81;2032892;28;20437;-55
2022/06/14 03:57:48;;;;;;;;;;;;;;;24.34;67.04;99697.66;2029013;28;20363;-55
2022/06/14 03:59:00;;;;;;;;;;;;;;;24.33;66.97;99694.13;2029055;29;19915;-54
2022/06/14 04:00:07;;;;;;;;;;;;;;;24.34;67.13;99698.44;2027120;29;20421;-54
2022/06/14 04:01:08;;;;;;;;;;;;;;;24.34;67.06;99701.22;2029466;28;19922;-57
2022/06/14 04:02:21;;;;;;;;;;;;;;;24.34;67.09;99700.44;2038337;28;19914;-57
2022/06/14 04:03:57;;;;;;;;;;;;;;;24.34;66.93;99709.50;2034849;28;20016;-57
2022/06/14 04:05:06;;;;;;;;;;;;;;;24.33;67.05;99699.66;2009592;29;19922;-57
2022/06/14 04:06:06;;;;;;;;;;;;;;;24.33;66.96;99699.66;2010092;29;20285;-55
2022/06/14 04:07:09;;;;;;;;;;;;;;;24.33;67.11;99710.72;2019335;29;19918;-56
2022/06/14 04:08:25;;;;;;;;;;;;;;;24.33;67.16;99705.19;2027220;29;19915;-57
2022/06/14 04:09:34;;;;;;;;;;;;;;;24.33;67.02;99709.97;2027900;28;19914;-58
2022/06/14 04:10:40;;;;;;;;;;;;;;;24.32;67.07;99700.88;2028587;28;20265;-57
2022/06/14 04:11:58;;;;;;;;;;;;;;;24.31;67.06;99713.22;2028430;29;20006;-58
2022/06/14 04:13:04;;;;;;;;;;;;;;;24.32;67.02;99713.97;2027602;29;19966;-57
2022/06/14 04:14:40;;;;;;;;;;;;;;;24.31;66.95;99707.69;2030495;28;19915;-57
2022/06/14 04:15:50;;;;;;;;;;;;;;;24.30;67.13;99708.91;2007814;29;19950;-56
2022/06/14 04:17:08;;;;;;;;;;;;;;;24.29;67.23;99710.13;2004727;29;19988;-57
2022/06/14 04:18:36;;;;;;;;;;;;;;;24.30;67.02;99703.38;2020551;29;19907;-55
2022/06/14 04:19:52;;;;;;;;;;;;;;;24.29;67.10;99712.88;2034764;28;20246;-58
2022/06/14 04:20:56;;;;;;;;;;;;;;;24.29;67.13;99715.66;2033912;28;19990;-57
2022/06/14 04:22:16;;;;;;;;;;;;;;;24.29;67.13;99714.88;2033311;28;19914;-57
2022/06/14 04:23:27;;;;;;;;;;;;;;;24.28;67.03;99708.56;2023723;28;19913;-57
2022/06/14 04:24:42;;;;;;;;;;;;;;;24.28;67.00;99716.88;2035196;28;19956;-56
2022/06/14 04:25:44;;;;;;;;;;;;;;;24.29;67.16;99710.13;2032570;28;20273;-57
2022/06/14 04:26:50;;;;;;;;;;;;;;;24.28;66.88;99716.88;2035836;29;19914;-57
2022/06/14 04:27:59;;;;;;;;;;;;;;;24.27;67.27;99709.06;2029257;29;19921;-57
2022/06/14 04:29:02;;;;;;;;;;;;;;;24.25;67.08;99712.25;2024053;29;19921;-58
2022/06/14 04:30:02;;;;;;;;;;;;;;;24.25;67.08;99715.03;2028903;29;19910;-57
2022/06/14 04:31:18;;;;;;;;;;;;;;;24.24;66.87;99718.25;2035111;28;19969;-58
2022/06/14 04:32:25;;;;;;;;;;;;;;;24.23;66.92;99711.94;2032919;28;20348;-56
2022/06/14 04:33:28;;;;;;;;;;;;;;;24.24;66.87;99713.50;2033510;28;19914;-57
2022/06/14 04:34:33;;;;;;;;;;;;;;;24.23;66.96;99706.41;2034870;28;20001;-57
2022/06/14 04:35:40;;;;;;;;;;;;;;;24.24;66.89;99713.50;2029835;28;19914;-57
2022/06/14 04:36:55;;;;;;;;;;;;;;;24.23;67.02;99717.47;2035493;28;20017;-56
2022/06/14 04:38:06;;;;;;;;;;;;;;;24.23;66.99;99716.72;2029404;29;19941;-57
2022/06/14 04:39:09;;;;;;;;;;;;;;;24.22;66.76;99726.22;2027778;28;20802;-57
2022/06/14 04:40:12;;;;;;;;;;;;;;;24.21;66.96;99714.41;2028689;29;19915;-57
2022/06/14 04:41:17;;;;;;;;;;;;;;;24.21;66.93;99717.19;2027351;28;19907;-56
2022/06/14 04:42:28;;;;;;;;;;;;;;;24.21;66.62;99719.94;2026293;28;20013;-56
2022/06/14 04:43:41;;;;;;;;;;;;;;;24.21;66.74;99713.63;2028661;29;19915;-56
2022/06/14 04:44:52;;;;;;;;;;;;;;;24.20;66.47;99721.16;2027656;29;20041;-58
2022/06/14 04:45:56;;;;;;;;;;;;;;;24.20;66.84;99712.88;2027992;28;20199;-57
2022/06/14 04:47:20;;;;;;;;;;;;;;;24.18;66.59;99715.31;2021156;28;19915;-58
2022/06/14 04:48:34;;;;;;;;;;;;;;;24.18;66.62;99712.53;2027182;28;19914;-56
2022/06/14 04:49:56;;;;;;;;;;;;;;;24.18;66.77;99709.78;2029082;29;20402;-57
2022/06/14 04:51:01;;;;;;;;;;;;;;;24.18;66.78;99715.31;2020150;28;19922;-56
2022/06/14 04:52:05;;;;;;;;;;;;;;;24.16;66.76;99720.53;2037101;28;19915;-57
2022/06/14 04:53:13;;;;;;;;;;;;;;;24.18;66.69;99714.53;2030239;28;20114;-55
2022/06/14 04:54:23;;;;;;;;;;;;;;;24.18;66.84;99722.84;2027287;28;19925;-57
2022/06/14 04:55:40;;;;;;;;;;;;;;;24.16;66.99;99715.00;2037728;28;19921;-57
2022/06/14 04:56:43;;;;;;;;;;;;;;;24.16;66.78;99717.75;2035026;28;19989;-57
2022/06/14 04:57:50;;;;;;;;;;;;;;;24.16;66.41;99717.75;2035603;28;19922;-57
2022/06/14 04:59:17;;;;;;;;;;;;;;;24.15;66.74;99715.44;2036303;28;19915;-56
2022/06/14 05:00:19;;;;;;;;;;;;;;;24.14;66.59;99711.91;2027901;28;19910;-57
2022/06/14 05:01:24;;;;;;;;;;;;;;;24.15;66.68;99715.44;2033383;28;20369;-57
2022/06/14 05:02:24;;;;;;;;;;;;;;;24.15;66.71;99707.91;2035159;28;20411;-57
2022/06/14 05:03:30;;;;;;;;;;;;;;;24.14;66.67;99714.66;2027288;29;19962;-56
2022/06/14 05:04:40;;;;;;;;;;;;;;;24.15;66.66;99716.22;2029454;28;20658;-58
2022/06/14 05:05:42;;;;;;;;;;;;;;;24.15;66.65;99718.19;2030349;29;20509;-57
2022/06/14 05:06:46;;;;;;;;;;;;;;;24.14;66.43;99717.44;2036188;28;20025;-54
2022/06/14 05:07:50;;;;;;;;;;;;;;;24.15;66.61;99723.72;2031108;28;19919;-54
2022/06/14 05:09:00;;;;;;;;;;;;;;;24.13;66.36;99710.34;2030305;29;19915;-55
2022/06/14 05:10:00;;;;;;;;;;;;;;;24.14;66.33;99714.66;2028447;29;20409;-55
2022/06/14 05:11:27;;;;;;;;;;;;;;;24.14;66.42;99711.13;2027081;29;19923;-54
2022/06/14 05:12:31;;;;;;;;;;;;;;;24.11;66.44;99707.25;2002371;29;19915;-55
2022/06/14 05:13:44;;;;;;;;;;;;;;;24.10;66.28;99713.25;2037307;29;20284;-54
2022/06/14 05:15:23;;;;;;;;;;;;;;;24.10;66.30;99716.81;2035122;28;19958;-53
2022/06/14 05:16:29;;;;;;;;;;;;;;;24.10;66.46;99714.03;2010436;29;19915;-55
2022/06/14 05:17:32;;;;;;;;;;;;;;;24.10;66.42;99714.03;2011957;29;20200;-55
2022/06/14 05:18:34;;;;;;;;;;;;;;;24.10;66.45;99708.50;2012012;29;19915;-55
2022/06/14 05:19:40;;;;;;;;;;;;;;;24.11;66.26;99709.28;2010028;29;19922;-54
2022/06/14 05:20:44;;;;;;;;;;;;;;;24.11;66.46;99704.50;2008140;29;19922;-55
2022/06/14 05:21:49;;;;;;;;;;;;;;;24.12;66.69;99706.03;2017003;29;19922;-55
2022/06/14 05:23:02;;;;;;;;;;;;;;;24.12;66.59;99710.78;2031205;29;19914;-54
2022/06/14 05:24:04;;;;;;;;;;;;;;;24.12;66.37;99711.56;2032874;28;19914;-55
2022/06/14 05:25:05;;;;;;;;;;;;;;;24.12;66.29;99705.25;2031761;28;19919;-55
2022/06/14 05:26:28;;;;;;;;;;;;;;;24.11;66.30;99712.78;2022103;29;20334;-54
2022/06/14 05:27:52;;;;;;;;;;;;;;;24.10;66.49;99707.72;2011481;29;19914;-55
2022/06/14 05:28:53;;;;;;;;;;;;;;;24.10;66.64;99714.03;2033879;28;19914;-55
2022/06/14 05:30:00;;;;;;;;;;;;;;;24.10;66.27;99707.72;2035245;28;20006;-55
2022/06/14 05:31:26;;;;;;;;;;;;;;;24.10;66.32;99707.72;2031759;29;19926;-55
2022/06/14 05:32:46;;;;;;;;;;;;;;;24.09;66.35;99706.97;2026940;29;19914;-55
2022/06/14 05:33:52;;;;;;;;;;;;;;;24.09;66.63;99701.44;2031695;28;20040;-54
2022/06/14 05:34:55;;;;;;;;;;;;;;;24.10;66.63;99710.50;2036655;28;20009;-54
2022/06/14 05:35:56;;;;;;;;;;;;;;;24.10;66.56;99707.72;2032211;28;19923;-55
2022/06/14 05:37:07;;;;;;;;;;;;;;;24.08;66.29;99708.19;2029219;29;19911;-55
2022/06/14 05:38:26;;;;;;;;;;;;;;;24.09;66.58;99706.19;2028986;29;19918;-54
2022/06/14 05:39:41;;;;;;;;;;;;;;;24.08;66.49;99704.66;2028643;28;20249;-54
2022/06/14 05:40:44;;;;;;;;;;;;;;;24.08;66.49;99713.72;2028869;28;19999;-55
2022/06/14 05:41:52;;;;;;;;;;;;;;;24.08;66.45;99705.41;2036792;28;19915;-53
2022/06/14 05:42:55;;;;;;;;;;;;;;;24.08;66.32;99701.88;2035872;28;19921;-55
2022/06/14 05:43:59;;;;;;;;;;;;;;;24.08;66.57;99710.19;2034250;28;20013;-55
2022/06/14 05:45:01;;;;;;;;;;;;;;;24.08;66.50;99705.41;2038002;28;19914;-55
2022/06/14 05:46:01;;;;;;;;;;;;;;;24.09;66.37;99708.94;2033834;28;19914;-55
2022/06/14 05:47:07;;;;;;;;;;;;;;;24.08;66.55;99708.19;2034826;28;20430;-53
2022/06/14 05:48:09;;;;;;;;;;;;;;;24.09;66.20;99700.66;2029581;29;20222;-55
2022/06/14 05:49:20;;;;;;;;;;;;;;;24.08;66.23;99699.88;2032803;28;19910;-54
2022/06/14 05:50:25;;;;;;;;;;;;;;;24.10;66.38;99696.66;2032865;28;19915;-55
2022/06/14 05:51:29;;;;;;;;;;;;;;;24.10;66.36;99699.44;2033283;28;19930;-54
2022/06/14 05:52:32;;;;;;;;;;;;;;;24.09;66.49;99700.66;2031906;28;20278;-52